Industry, Maine
Current Conditions -  °F | °C
As of 1:35 AM on Friday 19 Dec 2014 (Local Time) from KWVL Reporting Station
Overcast Overcast  
Wind Chill: 30°   Ceiling: 3400
Heat Index: 30°   Visibility: 10mi
Dew Point: 21°   Wind: 3mph
Humidity: 69%   Direction: 290°WNW
Pressure: 29.76"   Gusts: NA
Location:  44.6583°N, 70.1012°W
Report Text: KWVL 190635Z 29003KT 10SM FEW029 OVC034 M01/M06 A2976 RMK AO1
Loading
Personal Weather Stations






























Interactive Weather Map New forecast layout! Learn more

10-Day Weather Forecast

Advertisements
Track Severe Weather on mobile